createdAt,value
2019-01-31T00:00:59.717Z,262.63
2019-01-31T00:04:07.747Z,267.47
2019-01-31T00:07:33.376Z,265.50
2019-01-31T00:10:49.577Z,238.87
2019-01-31T00:13:27.004Z,251.77
2019-01-31T00:16:44.137Z,255.23
2019-01-31T00:19:45.470Z,226.50
2019-01-31T00:22:35.685Z,246.67
2019-01-31T00:25:23.508Z,222.97
2019-01-31T00:28:40.499Z,234.40
2019-01-31T00:31:48.662Z,238.80
2019-01-31T00:34:50.677Z,230.43
2019-01-31T00:37:45.303Z,239.40
2019-01-31T00:41:17.701Z,239.33
2019-01-31T00:43:55.958Z,235.40
2019-01-31T00:46:45.635Z,217.13
2019-01-31T00:49:45.862Z,226.77
2019-01-31T00:53:00.364Z,205.93
2019-01-31T00:56:11.750Z,202.03
2019-01-31T00:59:18.648Z,201.17
2019-01-31T01:02:51.165Z,197.03
2019-01-31T01:05:49.742Z,185.30
2019-01-31T01:08:34.287Z,203.33
2019-01-31T01:11:44.043Z,203.17
2019-01-31T01:14:51.967Z,198.17
2019-01-31T01:17:35.765Z,200.13
2019-01-31T01:20:28.090Z,195.73
2019-01-31T01:23:38.589Z,185.80
2019-01-31T01:26:50.467Z,194.53
2019-01-31T01:30:09.707Z,224.10
2019-01-31T01:33:20.578Z,209.33
2019-01-31T01:36:08.692Z,186.67
2019-01-31T01:39:18.830Z,199.50
2019-01-31T01:42:28.290Z,217.10
2019-01-31T01:45:43.301Z,193.83
2019-01-31T01:48:41.659Z,203.80
2019-01-31T01:51:47.276Z,217.67
2019-01-31T01:54:58.341Z,196.67
2019-01-31T01:57:51.786Z,209.13
2019-01-31T02:00:50.247Z,193.67
2019-01-31T02:03:43.469Z,186.77
2019-01-31T02:06:59.448Z,185.43
2019-01-31T02:10:08.962Z,198.50
2019-01-31T02:13:35.203Z,191.73
2019-01-31T02:16:38.495Z,181.13
2019-01-31T02:19:44.395Z,198.13
2019-01-31T02:22:31.026Z,197.50
2019-01-31T02:25:25.330Z,195.37
2019-01-31T02:28:46.505Z,180.27
2019-01-31T02:31:59.048Z,190.03
2019-01-31T02:34:40.273Z,192.30
2019-01-31T02:37:55.425Z,205.87
2019-01-31T02:41:02.589Z,195.33
2019-01-31T02:43:51.567Z,195.57
2019-01-31T02:46:42.951Z,224.57
2019-01-31T02:49:41.766Z,192.50
2019-01-31T02:52:50.155Z,190.10
2019-01-31T02:55:34.318Z,185.03
2019-01-31T02:58:38.633Z,192.33
2019-01-31T03:01:40.158Z,190.30
2019-01-31T03:04:38.661Z,189.20
2019-01-31T03:07:41.304Z,189.20
2019-01-31T03:10:34.094Z,182.43
2019-01-31T03:13:27.605Z,204.30
2019-01-31T03:16:47.926Z,222.07
2019-01-31T03:19:57.464Z,224.70
2019-01-31T03:23:09.490Z,205.87
2019-01-31T03:26:03.478Z,182.77
2019-01-31T03:29:19.666Z,202.27
2019-01-31T03:32:08.984Z,209.50
2019-01-31T03:34:52.844Z,198.97
2019-01-31T03:37:49.919Z,196.90
2019-01-31T03:40:54.952Z,218.17
2019-01-31T03:43:53.302Z,206.00
2019-01-31T03:46:57.612Z,222.20
2019-01-31T03:49:51.075Z,215.03
2019-01-31T03:52:55.567Z,211.83
2019-01-31T03:55:53.957Z,225.40
2019-01-31T03:58:38.519Z,245.43
2019-01-31T04:01:37.743Z,269.13
2019-01-31T04:04:28.334Z,261.20
2019-01-31T04:06:58.635Z,285.73
2019-01-31T04:09:28.868Z,305.93
2019-01-31T04:11:59.128Z,269.63
2019-01-31T04:14:29.502Z,233.43
2019-01-31T04:16:59.729Z,229.10
2019-01-31T04:19:29.989Z,244.40
2019-01-31T04:22:00.180Z,261.00
2019-01-31T04:24:30.461Z,286.87
2019-01-31T04:27:00.729Z,249.97
2019-01-31T04:29:30.962Z,294.97
2019-01-31T04:32:01.208Z,245.83
2019-01-31T04:34:31.368Z,242.77
2019-01-31T04:37:01.524Z,236.93
2019-01-31T04:39:31.694Z,240.17
2019-01-31T04:42:01.765Z,240.20
2019-01-31T04:44:31.987Z,256.17
2019-01-31T04:47:02.175Z,239.80
2019-01-31T04:49:32.352Z,227.23
2019-01-31T04:52:02.616Z,208.73
2019-01-31T04:54:32.823Z,218.13
2019-01-31T04:57:03.165Z,210.50
2019-01-31T04:59:33.450Z,208.57
2019-01-31T05:02:03.611Z,201.73
2019-01-31T05:04:33.788Z,161.50
2019-01-31T05:07:03.929Z,197.87
2019-01-31T05:09:34.156Z,175.17
2019-01-31T05:12:04.417Z,173.30
2019-01-31T05:14:34.601Z,176.60
2019-01-31T05:17:04.905Z,170.47
2019-01-31T05:19:35.070Z,176.00
2019-01-31T05:22:05.262Z,182.07
2019-01-31T05:24:35.398Z,196.97
2019-01-31T05:27:05.627Z,195.27
2019-01-31T05:29:35.856Z,188.20
2019-01-31T05:32:06.023Z,202.23
2019-01-31T05:34:36.358Z,202.67
2019-01-31T05:37:06.582Z,191.90
2019-01-31T05:39:36.775Z,192.13
2019-01-31T05:42:07.035Z,212.63
2019-01-31T05:44:37.415Z,208.27
2019-01-31T05:47:07.619Z,191.37
2019-01-31T05:49:37.889Z,206.03
2019-01-31T05:52:08.130Z,183.10
2019-01-31T05:54:38.405Z,194.73
2019-01-31T05:57:08.637Z,182.43
2019-01-31T05:59:38.792Z,196.47
2019-01-31T06:02:08.950Z,189.83
2019-01-31T06:04:39.159Z,193.03
2019-01-31T06:07:11.253Z,205.27
2019-01-31T06:09:41.359Z,221.40
2019-01-31T06:12:11.611Z,228.13
2019-01-31T06:14:41.809Z,212.50
2019-01-31T06:17:13.003Z,208.03
2019-01-31T06:19:43.256Z,206.87
2019-01-31T06:22:13.529Z,210.80
2019-01-31T06:24:43.749Z,204.63
2019-01-31T06:27:13.998Z,191.30
2019-01-31T06:29:44.251Z,177.97
2019-01-31T06:32:14.435Z,176.40
2019-01-31T06:34:44.732Z,166.77
2019-01-31T06:37:14.960Z,199.40
2019-01-31T06:39:45.205Z,177.37
2019-01-31T06:42:15.547Z,197.43
2019-01-31T06:44:45.764Z,185.97
2019-01-31T06:47:15.920Z,193.83
2019-01-31T06:49:46.166Z,197.27
2019-01-31T06:52:16.540Z,191.80
2019-01-31T06:54:46.766Z,179.87
2019-01-31T06:57:17.010Z,172.87
2019-01-31T06:59:47.191Z,178.23
2019-01-31T07:02:17.640Z,170.87
2019-01-31T07:04:47.846Z,177.20
2019-01-31T07:07:18.097Z,166.80
2019-01-31T07:09:48.355Z,176.47
2019-01-31T07:12:18.530Z,174.37
2019-01-31T07:14:48.760Z,161.60
2019-01-31T07:17:19.004Z,175.53
2019-01-31T07:19:49.162Z,176.10
2019-01-31T07:22:19.383Z,173.93
2019-01-31T07:24:50.599Z,183.23
2019-01-31T07:27:20.817Z,193.07
2019-01-31T07:29:51.100Z,181.90
2019-01-31T07:32:21.378Z,163.17
2019-01-31T07:34:51.578Z,160.40
2019-01-31T07:37:21.771Z,158.80
2019-01-31T07:39:51.990Z,175.33
2019-01-31T07:42:22.276Z,174.53
2019-01-31T07:44:52.510Z,157.47
2019-01-31T07:47:22.657Z,169.87
2019-01-31T07:49:53.047Z,153.47
2019-01-31T07:52:23.244Z,155.03
2019-01-31T07:54:53.579Z,162.47
2019-01-31T07:57:23.869Z,146.50
2019-01-31T07:59:53.997Z,151.43
2019-01-31T08:02:24.399Z,138.87
2019-01-31T08:04:54.599Z,142.80
2019-01-31T08:07:24.906Z,133.50
2019-01-31T08:09:56.130Z,132.30
2019-01-31T08:12:26.566Z,142.80
2019-01-31T08:14:56.759Z,130.30
2019-01-31T08:17:26.919Z,156.23
2019-01-31T08:19:57.162Z,151.07
2019-01-31T08:22:27.403Z,143.60
2019-01-31T08:24:57.586Z,152.43
2019-01-31T08:27:27.930Z,148.23
2019-01-31T08:29:58.186Z,147.13
2019-01-31T08:32:28.565Z,155.23
2019-01-31T08:34:58.823Z,158.30
2019-01-31T08:37:29.075Z,155.80
2019-01-31T08:39:59.131Z,148.60
2019-01-31T08:42:29.462Z,148.50
2019-01-31T08:44:59.687Z,153.57
2019-01-31T08:47:29.842Z,143.93
2019-01-31T08:50:00.010Z,161.17
2019-01-31T08:52:30.197Z,163.13
2019-01-31T08:55:00.353Z,134.60
2019-01-31T08:57:30.696Z,140.17
2019-01-31T09:00:03.893Z,137.27
2019-01-31T09:02:35.213Z,128.13
2019-01-31T09:05:06.201Z,127.10
2019-01-31T09:07:36.595Z,107.27
2019-01-31T09:10:09.555Z,103.90
2019-01-31T09:12:39.977Z,94.20
2019-01-31T09:15:11.566Z,101.33
2019-01-31T09:17:41.894Z,94.57
2019-01-31T09:20:13.590Z,99.17
2019-01-31T09:23:39.353Z,104.53
2019-01-31T09:26:44.757Z,107.17
2019-01-31T09:29:50.690Z,125.27
2019-01-31T09:32:33.317Z,114.03
2019-01-31T09:35:15.326Z,98.03
2019-01-31T09:38:29.987Z,108.47
2019-01-31T09:41:32.255Z,109.10
2019-01-31T09:44:48.261Z,111.90
2019-01-31T09:48:09.875Z,119.27
2019-01-31T09:51:11.121Z,113.07
2019-01-31T09:54:12.971Z,136.77
2019-01-31T09:57:15.127Z,114.00
2019-01-31T10:00:27.748Z,107.77
2019-01-31T10:03:31.146Z,111.63
2019-01-31T10:07:03.144Z,101.63
2019-01-31T10:10:00.852Z,104.00
2019-01-31T10:12:48.518Z,83.57
2019-01-31T10:16:26.548Z,77.93
2019-01-31T10:19:51.737Z,85.83
2019-01-31T10:22:58.962Z,83.87
2019-01-31T10:26:13.685Z,99.13
2019-01-31T10:29:42.723Z,89.63
2019-01-31T10:32:53.882Z,91.87
2019-01-31T10:35:49.719Z,88.37
2019-01-31T10:38:55.223Z,94.40
2019-01-31T10:41:55.146Z,93.17
2019-01-31T10:44:49.633Z,100.60
2019-01-31T10:48:05.535Z,98.67
2019-01-31T10:51:33.711Z,107.17
2019-01-31T10:54:21.985Z,110.23
2019-01-31T10:57:35.433Z,114.37
2019-01-31T11:00:43.530Z,109.57
2019-01-31T11:03:52.223Z,97.33
2019-01-31T11:06:49.297Z,89.77
2019-01-31T11:09:40.658Z,90.17
2019-01-31T11:12:39.862Z,85.13
2019-01-31T11:15:21.311Z,97.30
2019-01-31T11:18:07.118Z,118.63
2019-01-31T11:21:16.746Z,104.93
2019-01-31T11:24:26.608Z,120.73
2019-01-31T11:27:43.782Z,123.53
2019-01-31T11:30:44.030Z,138.67
2019-01-31T11:33:36.280Z,104.63
2019-01-31T11:36:38.544Z,107.90
2019-01-31T11:39:56.699Z,111.37
2019-01-31T11:42:44.606Z,124.93
2019-01-31T11:45:43.353Z,142.00
2019-01-31T11:48:41.862Z,129.90
2019-01-31T11:51:46.818Z,125.00
2019-01-31T11:55:13.374Z,120.33
2019-01-31T11:57:56.705Z,135.63
2019-01-31T12:00:27.487Z,137.30
2019-01-31T12:02:57.658Z,132.20
2019-01-31T12:05:27.797Z,129.23
2019-01-31T12:07:57.950Z,137.53
2019-01-31T12:10:28.119Z,132.50
2019-01-31T12:12:58.397Z,147.80
2019-01-31T12:15:28.501Z,137.83
2019-01-31T12:17:58.662Z,136.27
2019-01-31T12:20:28.818Z,143.27
2019-01-31T12:22:58.985Z,138.90
2019-01-31T12:25:29.213Z,144.57
2019-01-31T12:27:59.315Z,155.23
2019-01-31T12:30:29.778Z,157.37
2019-01-31T12:33:00.062Z,155.53
2019-01-31T12:35:30.151Z,160.07
2019-01-31T12:38:00.753Z,171.40
2019-01-31T12:40:30.886Z,158.40
2019-01-31T12:43:02.457Z,176.40
2019-01-31T12:45:32.715Z,171.93
2019-01-31T12:48:02.897Z,189.13
2019-01-31T12:50:33.091Z,186.70
2019-01-31T12:53:03.282Z,186.97
2019-01-31T12:55:33.693Z,178.10
2019-01-31T12:58:04.124Z,174.27
2019-01-31T13:00:34.231Z,163.80
2019-01-31T13:03:04.550Z,161.00
2019-01-31T13:05:34.697Z,173.00
2019-01-31T13:08:05.164Z,159.00
2019-01-31T13:10:35.298Z,232.77
2019-01-31T13:13:05.769Z,229.10
2019-01-31T13:15:35.957Z,187.77
2019-01-31T13:18:06.876Z,164.23
2019-01-31T13:20:37.918Z,158.17
2019-01-31T13:23:08.070Z,175.50
2019-01-31T13:25:38.178Z,169.07
2019-01-31T13:28:08.529Z,152.63
2019-01-31T13:30:38.659Z,167.93
2019-01-31T13:33:08.750Z,156.83
2019-01-31T13:35:38.930Z,176.87
2019-01-31T13:38:09.374Z,212.90
2019-01-31T13:40:39.439Z,185.00
2019-01-31T13:43:12.044Z,170.73
2019-01-31T13:45:42.557Z,194.77
2019-01-31T13:48:14.737Z,212.80
2019-01-31T13:50:44.877Z,192.50
2019-01-31T13:53:15.208Z,194.77
2019-01-31T13:55:45.395Z,188.00
2019-01-31T13:58:16.622Z,192.90
2019-01-31T14:00:47.737Z,197.10
2019-01-31T14:03:17.968Z,191.00
2019-01-31T14:05:48.119Z,183.53
2019-01-31T14:08:18.234Z,197.37
2019-01-31T14:10:48.361Z,190.40
2019-01-31T14:13:18.465Z,199.20
2019-01-31T14:15:48.553Z,191.37
2019-01-31T14:18:18.597Z,210.93
2019-01-31T14:20:48.825Z,219.17
2019-01-31T14:23:18.981Z,218.77
2019-01-31T14:25:49.303Z,226.27
2019-01-31T14:28:19.397Z,215.97
2019-01-31T14:30:49.587Z,215.33
2019-01-31T14:33:24.720Z,196.83
2019-01-31T14:35:57.902Z,189.93
2019-01-31T14:38:28.429Z,210.67
2019-01-31T14:40:58.585Z,235.33
2019-01-31T14:43:28.750Z,223.57
2019-01-31T14:45:58.984Z,221.93
2019-01-31T14:48:29.253Z,232.23
2019-01-31T14:50:59.434Z,224.20
2019-01-31T14:53:29.618Z,246.07
2019-01-31T14:55:59.851Z,220.73
2019-01-31T14:58:29.950Z,236.07
2019-01-31T15:01:00.084Z,240.13
2019-01-31T15:03:30.283Z,247.60
2019-01-31T15:06:00.523Z,236.83
2019-01-31T15:08:30.826Z,220.43
2019-01-31T15:11:00.982Z,205.33
2019-01-31T15:13:33.539Z,234.03
2019-01-31T15:16:03.743Z,247.60
2019-01-31T15:18:33.880Z,251.00
2019-01-31T15:21:04.024Z,214.43
2019-01-31T15:23:34.114Z,235.13
2019-01-31T15:26:04.310Z,229.83
2019-01-31T15:28:34.482Z,242.60
2019-01-31T15:31:04.650Z,221.30
2019-01-31T15:33:34.846Z,262.67
2019-01-31T15:36:05.098Z,239.90
2019-01-31T15:38:35.448Z,282.37
2019-01-31T15:41:05.783Z,268.73
2019-01-31T15:43:36.195Z,274.10
2019-01-31T15:46:06.458Z,309.20
2019-01-31T15:48:36.710Z,326.70
2019-01-31T15:51:07.346Z,284.37
2019-01-31T15:53:37.541Z,293.00
2019-01-31T15:56:09.083Z,307.47
2019-01-31T15:58:39.284Z,284.13
2019-01-31T16:01:12.054Z,243.90
2019-01-31T16:03:42.219Z,265.67
2019-01-31T16:06:12.428Z,252.53
2019-01-31T16:08:42.605Z,245.27
2019-01-31T16:11:13.154Z,244.00
2019-01-31T16:13:43.907Z,243.50
2019-01-31T16:16:14.062Z,240.90
2019-01-31T16:18:44.421Z,229.93
2019-01-31T16:21:14.656Z,214.00
2019-01-31T16:23:45.002Z,227.90
2019-01-31T16:26:15.080Z,211.63
2019-01-31T16:28:45.264Z,219.50
2019-01-31T16:31:15.377Z,201.30
2019-01-31T16:33:45.578Z,184.97
2019-01-31T16:36:15.852Z,216.37
2019-01-31T16:38:46.162Z,239.93
2019-01-31T16:41:17.404Z,230.03
2019-01-31T16:43:47.789Z,240.07
2019-01-31T16:46:18.077Z,256.57
2019-01-31T16:48:48.362Z,252.60
2019-01-31T16:51:18.563Z,241.10
2019-01-31T16:53:48.771Z,218.90
2019-01-31T16:56:19.059Z,213.33
2019-01-31T16:58:49.326Z,221.47
2019-01-31T17:01:19.503Z,250.10
2019-01-31T17:03:49.679Z,266.33
2019-01-31T17:06:19.938Z,251.63
2019-01-31T17:08:50.778Z,275.30
2019-01-31T17:11:21.168Z,276.00
2019-01-31T17:13:51.435Z,281.83
2019-01-31T17:16:21.697Z,269.30
2019-01-31T17:18:54.683Z,270.77
2019-01-31T17:21:23.874Z,287.57
2019-01-31T17:23:53.945Z,309.53
2019-01-31T17:26:24.593Z,313.57
2019-01-31T17:28:54.660Z,299.40
2019-01-31T17:31:24.893Z,315.60
2019-01-31T17:33:55.162Z,270.57
2019-01-31T17:36:30.465Z,334.83
2019-01-31T17:39:00.748Z,341.87
2019-01-31T17:41:33.123Z,368.43
2019-01-31T17:44:03.427Z,402.30
2019-01-31T17:46:33.766Z,354.33
2019-01-31T17:49:04.998Z,340.57
2019-01-31T17:51:35.506Z,360.83
2019-01-31T17:54:09.169Z,384.70
2019-01-31T17:56:39.486Z,333.87
2019-01-31T17:59:09.700Z,396.73
2019-01-31T18:01:39.910Z,344.37
2019-01-31T18:04:10.126Z,287.77
2019-01-31T18:06:44.917Z,328.53
2019-01-31T18:09:15.131Z,278.33
2019-01-31T18:11:45.356Z,285.30
2019-01-31T18:14:15.550Z,287.43
2019-01-31T18:16:45.907Z,284.83
2019-01-31T18:19:19.367Z,324.70
2019-01-31T18:21:49.662Z,375.13
2019-01-31T18:24:20.024Z,354.60
2019-01-31T18:26:50.391Z,312.33
2019-01-31T18:29:20.783Z,320.60
2019-01-31T18:31:50.987Z,281.33
2019-01-31T18:34:21.275Z,288.17
2019-01-31T18:36:51.442Z,341.50
2019-01-31T18:39:21.783Z,317.03
2019-01-31T18:41:51.925Z,335.97
2019-01-31T18:44:22.053Z,304.43
2019-01-31T18:46:53.505Z,317.60
2019-01-31T18:49:24.148Z,318.40
2019-01-31T18:51:54.331Z,331.63
2019-01-31T18:54:24.610Z,310.17
2019-01-31T18:56:54.922Z,336.57
2019-01-31T18:59:25.169Z,348.90
2019-01-31T19:01:55.346Z,320.07
2019-01-31T19:04:25.736Z,315.77
2019-01-31T19:06:56.135Z,266.80
2019-01-31T19:09:26.481Z,275.07
2019-01-31T19:11:57.165Z,273.77
2019-01-31T19:14:27.303Z,295.57
2019-01-31T19:16:57.543Z,301.63
2019-01-31T19:19:27.774Z,328.50
2019-01-31T19:21:57.958Z,320.37
2019-01-31T19:24:28.256Z,236.00
2019-01-31T19:26:58.550Z,227.80
2019-01-31T19:29:29.098Z,235.17
2019-01-31T19:31:59.319Z,199.37
2019-01-31T19:34:29.646Z,241.93
2019-01-31T19:37:00.019Z,226.80
2019-01-31T19:39:33.541Z,251.47
2019-01-31T19:42:02.179Z,237.00
2019-01-31T19:44:32.408Z,240.27
2019-01-31T19:47:04.952Z,276.40
2019-01-31T19:49:35.283Z,279.07
2019-01-31T19:52:05.950Z,294.63
2019-01-31T19:54:37.329Z,287.37
2019-01-31T19:57:07.761Z,282.47
2019-01-31T19:59:37.937Z,262.97
2019-01-31T20:02:08.175Z,233.53
2019-01-31T20:04:39.341Z,244.67
2019-01-31T20:07:09.579Z,230.57
2019-01-31T20:09:39.848Z,268.17
2019-01-31T20:12:10.139Z,281.60
2019-01-31T20:14:40.316Z,236.83
2019-01-31T20:17:10.580Z,226.97
2019-01-31T20:19:40.845Z,236.07
2019-01-31T20:22:11.234Z,231.43
2019-01-31T20:24:41.481Z,230.13
2019-01-31T20:27:13.275Z,250.50
2019-01-31T20:29:43.753Z,228.20
2019-01-31T20:32:14.132Z,220.20
2019-01-31T20:34:44.397Z,231.87
2019-01-31T20:37:14.694Z,235.10
2019-01-31T20:39:45.009Z,263.00
2019-01-31T20:42:16.571Z,288.27
2019-01-31T20:44:46.831Z,238.80
2019-01-31T20:47:17.142Z,245.10
2019-01-31T20:49:47.539Z,229.00
2019-01-31T20:52:17.787Z,222.77
2019-01-31T20:54:50.334Z,256.77
2019-01-31T20:57:20.729Z,261.83
2019-01-31T20:59:51.131Z,249.00
2019-01-31T21:02:21.966Z,282.97
2019-01-31T21:04:52.133Z,244.13
2019-01-31T21:07:22.414Z,239.80
2019-01-31T21:09:52.711Z,253.33
2019-01-31T21:12:22.922Z,218.27
2019-01-31T21:14:53.082Z,250.13
2019-01-31T21:17:23.190Z,217.70
2019-01-31T21:19:53.403Z,262.80
2019-01-31T21:22:23.531Z,222.43
2019-01-31T21:24:53.842Z,217.33
2019-01-31T21:27:23.906Z,198.07
2019-01-31T21:29:53.978Z,196.80
2019-01-31T21:32:24.185Z,184.07
2019-01-31T21:34:54.282Z,184.73
2019-01-31T21:37:24.399Z,179.77
2019-01-31T21:39:54.602Z,182.77
2019-01-31T21:42:24.958Z,180.70
2019-01-31T21:44:55.109Z,189.23
2019-01-31T21:47:25.332Z,191.10
2019-01-31T21:49:55.583Z,176.20
2019-01-31T21:52:25.846Z,171.80
2019-01-31T21:54:56.037Z,167.73
2019-01-31T21:57:26.217Z,210.60
2019-01-31T21:59:56.402Z,203.03
2019-01-31T22:02:26.558Z,226.20
2019-01-31T22:04:56.823Z,222.60
2019-01-31T22:07:27.161Z,223.33
2019-01-31T22:09:57.425Z,192.40
2019-01-31T22:12:27.860Z,200.27
2019-01-31T22:14:58.095Z,201.43
2019-01-31T22:17:30.122Z,171.50
2019-01-31T22:20:00.204Z,178.93
2019-01-31T22:22:30.578Z,168.00
2019-01-31T22:25:00.755Z,191.60
2019-01-31T22:27:30.950Z,180.63
2019-01-31T22:30:01.167Z,183.13
2019-01-31T22:32:33.124Z,175.80
2019-01-31T22:35:03.429Z,157.50
2019-01-31T22:37:34.260Z,166.53
2019-01-31T22:40:05.651Z,155.57
2019-01-31T22:42:35.916Z,143.03
2019-01-31T22:45:07.756Z,131.17
2019-01-31T22:47:37.830Z,138.97
2019-01-31T22:50:09.474Z,147.60
2019-01-31T22:52:39.635Z,151.80
2019-01-31T22:55:10.558Z,149.53
2019-01-31T22:57:40.745Z,140.10
2019-01-31T23:00:20.235Z,148.83
2019-01-31T23:02:51.821Z,161.90
2019-01-31T23:05:22.010Z,171.50
2019-01-31T23:07:52.109Z,152.17
2019-01-31T23:10:22.334Z,146.43
2019-01-31T23:12:52.689Z,127.77
2019-01-31T23:15:22.942Z,122.40
2019-01-31T23:17:53.074Z,136.93
2019-01-31T23:20:23.226Z,127.60
2019-01-31T23:22:53.370Z,136.43
2019-01-31T23:25:23.556Z,142.83
2019-01-31T23:27:53.682Z,139.13
2019-01-31T23:30:24.033Z,149.90
2019-01-31T23:32:54.358Z,151.33
2019-01-31T23:35:25.565Z,147.87
2019-01-31T23:37:55.764Z,155.70
2019-01-31T23:40:26.006Z,158.23
2019-01-31T23:42:56.228Z,140.43
2019-01-31T23:45:26.347Z,121.23
2019-01-31T23:47:56.635Z,112.83
2019-01-31T23:50:26.878Z,113.50
2019-01-31T23:52:57.307Z,117.43
2019-01-31T23:55:27.566Z,106.87
2019-01-31T23:57:57.682Z,117.13
